sensor_id;sensor_type;location;lat;lon;timestamp;pressure;altitude;pressure_sealevel;temperature;humidity
57192;BME280;43052;52.588;13.396;2023-02-20T00:00:19;101727.88;;;1.39;72.96
57192;BME280;43052;52.588;13.396;2023-02-20T00:02:44;101732.22;;;1.40;73.24
57192;BME280;43052;52.588;13.396;2023-02-20T00:05:11;101746.72;;;1.38;73.33
57192;BME280;43052;52.588;13.396;2023-02-20T00:07:37;101725.81;;;1.32;73.59
57192;BME280;43052;52.588;13.396;2023-02-20T00:10:03;101725.16;;;1.36;73.69
57192;BME280;43052;52.588;13.396;2023-02-20T00:12:28;101730.59;;;1.42;73.42
57192;BME280;43052;52.588;13.396;2023-02-20T00:14:53;101722.81;;;1.40;73.56
57192;BME280;43052;52.588;13.396;2023-02-20T00:17:18;101714.91;;;1.37;73.40
57192;BME280;43052;52.588;13.396;2023-02-20T00:19:44;101716.81;;;1.41;73.52
57192;BME280;43052;52.588;13.396;2023-02-20T00:22:09;101717.56;;;1.39;73.88
57192;BME280;43052;52.588;13.396;2023-02-20T00:24:34;101713.38;;;1.41;73.85
57192;BME280;43052;52.588;13.396;2023-02-20T00:27:00;101713.22;;;1.38;73.68
57192;BME280;43052;52.588;13.396;2023-02-20T00:29:25;101702.91;;;1.38;74.07
57192;BME280;43052;52.588;13.396;2023-02-20T00:31:55;101701.44;;;1.43;73.98
57192;BME280;43052;52.588;13.396;2023-02-20T00:34:23;101709.06;;;1.41;73.76
57192;BME280;43052;52.588;13.396;2023-02-20T00:36:50;101702.03;;;1.37;73.97
57192;BME280;43052;52.588;13.396;2023-02-20T00:39:15;101693.34;;;1.35;74.11
57192;BME280;43052;52.588;13.396;2023-02-20T00:41:40;101696.81;;;1.36;74.00
57192;BME280;43052;52.588;13.396;2023-02-20T00:44:06;101696.66;;;1.33;74.18
57192;BME280;43052;52.588;13.396;2023-02-20T00:46:31;101692.47;;;1.35;74.37
57192;BME280;43052;52.588;13.396;2023-02-20T00:48:56;101680.31;;;1.32;74.37
57192;BME280;43052;52.588;13.396;2023-02-20T00:51:22;101683.03;;;1.35;74.16
57192;BME280;43052;52.588;13.396;2023-02-20T00:53:47;101688.25;;;1.37;74.25
57192;BME280;43052;52.588;13.396;2023-02-20T00:56:12;101679.34;;;1.30;74.44
57192;BME280;43052;52.588;13.396;2023-02-20T00:58:37;101666.38;;;1.29;74.49
57192;BME280;43052;52.588;13.396;2023-02-20T01:01:03;101673.47;;;1.33;74.63
57192;BME280;43052;52.588;13.396;2023-02-20T01:03:28;101659.69;;;1.32;74.44
57192;BME280;43052;52.588;13.396;2023-02-20T01:05:53;101671.84;;;1.35;74.64
57192;BME280;43052;52.588;13.396;2023-02-20T01:08:19;101661.59;;;1.36;74.77
57192;BME280;43052;52.588;13.396;2023-02-20T01:10:44;101668.34;;;1.52;74.98
57192;BME280;43052;52.588;13.396;2023-02-20T01:13:09;101659.59;;;1.68;74.92
57192;BME280;43052;52.588;13.396;2023-02-20T01:15:35;101651.47;;;1.79;74.74
57192;BME280;43052;52.588;13.396;2023-02-20T01:18:00;101650.47;;;1.95;74.88
57192;BME280;43052;52.588;13.396;2023-02-20T01:20:25;101652.63;;;2.05;74.79
57192;BME280;43052;52.588;13.396;2023-02-20T01:22:51;101633.88;;;2.09;74.85
57192;BME280;43052;52.588;13.396;2023-02-20T01:25:16;101621.66;;;2.25;74.91
57192;BME280;43052;52.588;13.396;2023-02-20T01:27:41;101624.16;;;2.44;74.37
57192;BME280;43052;52.588;13.396;2023-02-20T01:30:07;101628.31;;;2.62;74.53
57192;BME280;43052;52.588;13.396;2023-02-20T01:32:33;101619.13;;;2.69;74.50
57192;BME280;43052;52.588;13.396;2023-02-20T01:34:58;101609.16;;;2.78;74.35
57192;BME280;43052;52.588;13.396;2023-02-20T01:37:23;101610.47;;;2.89;73.87
57192;BME280;43052;52.588;13.396;2023-02-20T01:39:48;101603.72;;;2.93;73.91
57192;BME280;43052;52.588;13.396;2023-02-20T01:42:18;101613.59;;;3.03;73.73
57192;BME280;43052;52.588;13.396;2023-02-20T01:44:44;101604.97;;;3.03;73.61
57192;BME280;43052;52.588;13.396;2023-02-20T01:47:18;101602.50;;;3.06;73.63
57192;BME280;43052;52.588;13.396;2023-02-20T01:49:50;101599.38;;;3.14;73.47
57192;BME280;43052;52.588;13.396;2023-02-20T01:52:18;101584.81;;;3.17;73.54
57192;BME280;43052;52.588;13.396;2023-02-20T01:54:48;101567.50;;;3.14;73.33
57192;BME280;43052;52.588;13.396;2023-02-20T01:57:19;101568.00;;;3.28;73.16
57192;BME280;43052;52.588;13.396;2023-02-20T01:59:46;101556.84;;;3.29;72.87
57192;BME280;43052;52.588;13.396;2023-02-20T02:02:12;101550.09;;;3.33;72.63
57192;BME280;43052;52.588;13.396;2023-02-20T02:04:38;101542.94;;;3.25;73.01
57192;BME280;43052;52.588;13.396;2023-02-20T02:07:05;101549.91;;;3.28;72.84
57192;BME280;43052;52.588;13.396;2023-02-20T02:09:39;101542.75;;;3.21;72.76
57192;BME280;43052;52.588;13.396;2023-02-20T02:12:06;101552.50;;;3.28;72.77
57192;BME280;43052;52.588;13.396;2023-02-20T02:14:31;101536.81;;;3.23;72.60
57192;BME280;43052;52.588;13.396;2023-02-20T02:17:17;101528.97;;;3.22;72.48
57192;BME280;43052;52.588;13.396;2023-02-20T02:22:42;101537.00;;;3.28;72.66
57192;BME280;43052;52.588;13.396;2023-02-20T02:28:09;101534.91;;;3.42;72.26
57192;BME280;43052;52.588;13.396;2023-02-20T02:30:47;101541.88;;;3.44;72.33
57192;BME280;43052;52.588;13.396;2023-02-20T02:33:30;101543.97;;;3.55;72.10
57192;BME280;43052;52.588;13.396;2023-02-20T02:38:45;101519.88;;;3.56;71.52
57192;BME280;43052;52.588;13.396;2023-02-20T02:41:21;101516.56;;;3.60;71.71
57192;BME280;43052;52.588;13.396;2023-02-20T02:49:25;101504.00;;;3.71;71.91
57192;BME280;43052;52.588;13.396;2023-02-20T02:51:54;101507.69;;;3.78;71.69
57192;BME280;43052;52.588;13.396;2023-02-20T02:54:24;101490.41;;;3.76;71.52
57192;BME280;43052;52.588;13.396;2023-02-20T02:56:51;101496.50;;;3.79;71.64
57192;BME280;43052;52.588;13.396;2023-02-20T02:59:20;101501.84;;;3.83;71.43
57192;BME280;43052;52.588;13.396;2023-02-20T03:01:50;101496.72;;;3.85;71.36
57192;BME280;43052;52.588;13.396;2023-02-20T03:04:18;101483.06;;;3.89;71.54
57192;BME280;43052;52.588;13.396;2023-02-20T03:06:50;101478.00;;;3.92;71.29
57192;BME280;43052;52.588;13.396;2023-02-20T03:09:27;101480.66;;;3.95;71.23
57192;BME280;43052;52.588;13.396;2023-02-20T03:11:54;101471.41;;;4.02;71.26
57192;BME280;43052;52.588;13.396;2023-02-20T03:14:24;101469.78;;;4.05;71.24
57192;BME280;43052;52.588;13.396;2023-02-20T03:19:49;101467.31;;;4.08;70.87
57192;BME280;43052;52.588;13.396;2023-02-20T03:22:20;101446.47;;;4.04;71.22
57192;BME280;43052;52.588;13.396;2023-02-20T03:24:49;101459.72;;;4.15;71.25
57192;BME280;43052;52.588;13.396;2023-02-20T03:27:45;101444.25;;;4.16;71.11
57192;BME280;43052;52.588;13.396;2023-02-20T03:33:07;101420.25;;;4.22;71.06
57192;BME280;43052;52.588;13.396;2023-02-20T03:35:54;101422.28;;;4.31;71.00
57192;BME280;43052;52.588;13.396;2023-02-20T03:38:41;101416.28;;;4.33;71.13
57192;BME280;43052;52.588;13.396;2023-02-20T03:41:28;101418.13;;;4.37;71.13
57192;BME280;43052;52.588;13.396;2023-02-20T03:44:14;101408.94;;;4.47;70.95
57192;BME280;43052;52.588;13.396;2023-02-20T03:46:43;101415.97;;;4.51;70.99
57192;BME280;43052;52.588;13.396;2023-02-20T03:49:17;101423.94;;;4.58;70.84
57192;BME280;43052;52.588;13.396;2023-02-20T03:54:54;101429.88;;;4.55;71.04
57192;BME280;43052;52.588;13.396;2023-02-20T03:57:24;101429.13;;;4.58;71.25
57192;BME280;43052;52.588;13.396;2023-02-20T04:00:01;101425.72;;;4.60;70.86
57192;BME280;43052;52.588;13.396;2023-02-20T04:02:30;101420.75;;;4.68;71.16
57192;BME280;43052;52.588;13.396;2023-02-20T04:05:02;101410.50;;;4.71;71.12
57192;BME280;43052;52.588;13.396;2023-02-20T04:07:35;101423.59;;;4.76;70.86
57192;BME280;43052;52.588;13.396;2023-02-20T04:10:06;101406.28;;;4.75;70.86
57192;BME280;43052;52.588;13.396;2023-02-20T04:12:36;101409.09;;;4.82;70.70
57192;BME280;43052;52.588;13.396;2023-02-20T04:15:04;101412.56;;;4.83;70.83
57192;BME280;43052;52.588;13.396;2023-02-20T04:17:39;101421.22;;;4.83;71.17
57192;BME280;43052;52.588;13.396;2023-02-20T04:20:06;101401.31;;;4.82;71.04
57192;BME280;43052;52.588;13.396;2023-02-20T04:22:36;101398.03;;;4.88;71.00
57192;BME280;43052;52.588;13.396;2023-02-20T04:25:13;101394.50;;;4.86;71.06
57192;BME280;43052;52.588;13.396;2023-02-20T04:27:42;101397.13;;;4.88;71.05
57192;BME280;43052;52.588;13.396;2023-02-20T04:30:08;101369.28;;;4.80;71.00
57192;BME280;43052;52.588;13.396;2023-02-20T04:32:34;101377.31;;;4.90;71.12
57192;BME280;43052;52.588;13.396;2023-02-20T04:34:59;101368.69;;;4.89;71.18
57192;BME280;43052;52.588;13.396;2023-02-20T04:37:25;101364.28;;;4.86;71.26
57192;BME280;43052;52.588;13.396;2023-02-20T04:39:50;101370.41;;;4.90;71.31
57192;BME280;43052;52.588;13.396;2023-02-20T04:42:15;101343.47;;;4.83;71.35
57192;BME280;43052;52.588;13.396;2023-02-20T04:44:40;101365.41;;;4.96;71.75
57192;BME280;43052;52.588;13.396;2023-02-20T04:47:11;101355.19;;;5.01;71.19
57192;BME280;43052;52.588;13.396;2023-02-20T04:49:37;101346.44;;;4.97;71.19
57192;BME280;43052;52.588;13.396;2023-02-20T04:52:02;101352.72;;;5.06;70.92
57192;BME280;43052;52.588;13.396;2023-02-20T04:54:28;101346.75;;;5.10;71.40
57192;BME280;43052;52.588;13.396;2023-02-20T04:56:53;101338.22;;;5.14;71.35
57192;BME280;43052;52.588;13.396;2023-02-20T04:59:18;101325.25;;;5.14;71.21
57192;BME280;43052;52.588;13.396;2023-02-20T05:01:44;101325.50;;;5.23;71.06
57192;BME280;43052;52.588;13.396;2023-02-20T05:04:16;101329.84;;;5.24;71.20
57192;BME280;43052;52.588;13.396;2023-02-20T05:06:44;101329.06;;;5.27;71.26
57192;BME280;43052;52.588;13.396;2023-02-20T05:09:10;101314.28;;;5.24;71.14
57192;BME280;43052;52.588;13.396;2023-02-20T05:11:36;101310.13;;;5.31;71.27
57192;BME280;43052;52.588;13.396;2023-02-20T05:14:02;101310.19;;;5.34;71.34
57192;BME280;43052;52.588;13.396;2023-02-20T05:16:28;101307.72;;;5.39;71.37
57192;BME280;43052;52.588;13.396;2023-02-20T05:18:53;101297.44;;;5.42;71.26
57192;BME280;43052;52.588;13.396;2023-02-20T05:21:18;101286.16;;;5.41;71.36
57192;BME280;43052;52.588;13.396;2023-02-20T05:24:02;101295.81;;;5.47;71.25
57192;BME280;43052;52.588;13.396;2023-02-20T05:26:27;101301.94;;;5.51;71.41
57192;BME280;43052;52.588;13.396;2023-02-20T05:28:52;101293.34;;;5.52;71.41
57192;BME280;43052;52.588;13.396;2023-02-20T05:31:17;101301.31;;;5.59;71.39
57192;BME280;43052;52.588;13.396;2023-02-20T05:33:43;101300.44;;;5.60;71.35
57192;BME280;43052;52.588;13.396;2023-02-20T05:36:08;101294.41;;;5.61;71.51
57192;BME280;43052;52.588;13.396;2023-02-20T05:38:33;101296.25;;;5.65;71.47
57192;BME280;43052;52.588;13.396;2023-02-20T05:40:59;101286.72;;;5.64;71.46
57192;BME280;43052;52.588;13.396;2023-02-20T05:43:24;101285.91;;;5.67;71.63
57192;BME280;43052;52.588;13.396;2023-02-20T05:45:49;101277.28;;;5.70;71.79
57192;BME280;43052;52.588;13.396;2023-02-20T05:48:15;101280.78;;;5.70;71.65
57192;BME280;43052;52.588;13.396;2023-02-20T05:50:40;101269.34;;;5.62;71.93
57192;BME280;43052;52.588;13.396;2023-02-20T05:53:06;101279.78;;;5.65;72.23
57192;BME280;43052;52.588;13.396;2023-02-20T05:55:31;101274.59;;;5.65;72.09
57192;BME280;43052;52.588;13.396;2023-02-20T05:57:57;101269.38;;;5.63;72.19
57192;BME280;43052;52.588;13.396;2023-02-20T06:00:22;101246.88;;;5.62;72.38
57192;BME280;43052;52.588;13.396;2023-02-20T06:02:48;101245.19;;;5.64;72.79
57192;BME280;43052;52.588;13.396;2023-02-20T06:05:14;101238.28;;;5.65;72.85
57192;BME280;43052;52.588;13.396;2023-02-20T06:07:42;101229.63;;;5.64;72.29
57192;BME280;43052;52.588;13.396;2023-02-20T06:10:08;101240.03;;;5.66;72.75
57192;BME280;43052;52.588;13.396;2023-02-20T06:12:33;101224.50;;;5.68;72.78
57192;BME280;43052;52.588;13.396;2023-02-20T06:14:58;101215.81;;;5.65;72.52
57192;BME280;43052;52.588;13.396;2023-02-20T06:17:23;101221.03;;;5.69;72.86
57192;BME280;43052;52.588;13.396;2023-02-20T06:19:49;101209.88;;;5.71;72.74
57192;BME280;43052;52.588;13.396;2023-02-20T06:22:15;101216.03;;;5.76;72.74
57192;BME280;43052;52.588;13.396;2023-02-20T06:24:44;101211.63;;;5.72;72.74
57192;BME280;43052;52.588;13.396;2023-02-20T06:27:10;101222.06;;;5.75;72.94
57192;BME280;43052;52.588;13.396;2023-02-20T06:29:35;101216.88;;;5.75;73.00
57192;BME280;43052;52.588;13.396;2023-02-20T06:32:00;101207.41;;;5.77;72.73
57192;BME280;43052;52.588;13.396;2023-02-20T06:34:25;101207.53;;;5.84;72.84
57192;BME280;43052;52.588;13.396;2023-02-20T06:36:55;101188.41;;;5.80;72.90
57192;BME280;43052;52.588;13.396;2023-02-20T06:39:20;101181.66;;;5.87;72.54
57192;BME280;43052;52.588;13.396;2023-02-20T06:41:45;101199.81;;;5.87;72.65
57192;BME280;43052;52.588;13.396;2023-02-20T06:44:11;101191.28;;;5.92;73.03
57192;BME280;43052;52.588;13.396;2023-02-20T06:46:36;101192.19;;;5.94;72.83
57192;BME280;43052;52.588;13.396;2023-02-20T06:49:02;101167.03;;;5.92;72.74
57192;BME280;43052;52.588;13.396;2023-02-20T06:51:31;101160.25;;;5.99;72.90
57192;BME280;43052;52.588;13.396;2023-02-20T06:53:57;101165.50;;;6.00;72.81
57192;BME280;43052;52.588;13.396;2023-02-20T06:56:31;101188.09;;;6.06;72.69
57192;BME280;43052;52.588;13.396;2023-02-20T06:58:57;101186.34;;;6.05;72.90
57192;BME280;43052;52.588;13.396;2023-02-20T07:01:25;101193.44;;;6.12;72.70
57192;BME280;43052;52.588;13.396;2023-02-20T07:03:54;101176.88;;;6.07;72.50
57192;BME280;43052;52.588;13.396;2023-02-20T07:06:21;101168.34;;;6.14;72.30
57192;BME280;43052;52.588;13.396;2023-02-20T07:08:47;101172.59;;;6.09;72.29
57192;BME280;43052;52.588;13.396;2023-02-20T07:11:13;101151.91;;;6.12;72.27
57192;BME280;43052;52.588;13.396;2023-02-20T07:13:40;101147.59;;;6.14;72.68
57192;BME280;43052;52.588;13.396;2023-02-20T07:16:06;101158.94;;;6.19;71.81
57192;BME280;43052;52.588;13.396;2023-02-20T07:18:31;101165.06;;;6.23;71.73
57192;BME280;43052;52.588;13.396;2023-02-20T07:20:57;101160.75;;;6.23;71.55
57192;BME280;43052;52.588;13.396;2023-02-20T07:23:22;101160.88;;;6.30;71.37
57192;BME280;43052;52.588;13.396;2023-02-20T07:25:48;101140.91;;;6.27;71.46
57192;BME280;43052;52.588;13.396;2023-02-20T07:28:15;101174.00;;;6.37;71.34
57192;BME280;43052;52.588;13.396;2023-02-20T07:30:41;101164.44;;;6.36;71.29
57192;BME280;43052;52.588;13.396;2023-02-20T07:33:07;101157.41;;;6.31;70.84
57192;BME280;43052;52.588;13.396;2023-02-20T07:35:32;101148.84;;;6.35;70.98
57192;BME280;43052;52.588;13.396;2023-02-20T07:37:58;101167.19;;;6.44;70.87
57192;BME280;43052;52.588;13.396;2023-02-20T07:40:23;101140.38;;;6.47;70.77
57192;BME280;43052;52.588;13.396;2023-02-20T07:42:48;101140.53;;;6.54;70.60
57192;BME280;43052;52.588;13.396;2023-02-20T07:45:13;101125.84;;;6.58;70.36
57192;BME280;43052;52.588;13.396;2023-02-20T07:47:39;101121.53;;;6.58;70.10
57192;BME280;43052;52.588;13.396;2023-02-20T07:50:04;101117.22;;;6.61;69.75
57192;BME280;43052;52.588;13.396;2023-02-20T07:52:29;101111.13;;;6.58;69.94
57192;BME280;43052;52.588;13.396;2023-02-20T07:54:55;101112.09;;;6.65;69.65
57192;BME280;43052;52.588;13.396;2023-02-20T07:57:20;101116.38;;;6.60;69.59
57192;BME280;43052;52.588;13.396;2023-02-20T07:59:46;101133.66;;;6.59;69.65
57192;BME280;43052;52.588;13.396;2023-02-20T08:02:11;101133.81;;;6.67;69.29
57192;BME280;43052;52.588;13.396;2023-02-20T08:04:37;101104.31;;;6.65;69.12
57192;BME280;43052;52.588;13.396;2023-02-20T08:07:02;101094.81;;;6.67;68.72
57192;BME280;43052;52.588;13.396;2023-02-20T08:09:27;101088.84;;;6.73;68.67
57192;BME280;43052;52.588;13.396;2023-02-20T08:11:52;101088.88;;;6.76;68.46
57192;BME280;43052;52.588;13.396;2023-02-20T08:14:18;101096.81;;;6.84;68.25
57192;BME280;43052;52.588;13.396;2023-02-20T08:16:49;101073.47;;;6.87;68.35
57192;BME280;43052;52.588;13.396;2023-02-20T08:19:14;101080.44;;;6.89;67.94
57192;BME280;43052;52.588;13.396;2023-02-20T08:21:39;101064.00;;;6.92;67.77
57192;BME280;43052;52.588;13.396;2023-02-20T08:24:05;101059.72;;;6.96;67.74
57192;BME280;43052;52.588;13.396;2023-02-20T08:26:30;101057.94;;;6.93;67.74
57192;BME280;43052;52.588;13.396;2023-02-20T08:28:58;101045.94;;;7.03;67.68
57192;BME280;43052;52.588;13.396;2023-02-20T08:31:24;101037.34;;;7.07;67.29
57192;BME280;43052;52.588;13.396;2023-02-20T08:33:51;101025.31;;;7.15;66.72
57192;BME280;43052;52.588;13.396;2023-02-20T08:36:17;101027.94;;;7.18;66.86
57192;BME280;43052;52.588;13.396;2023-02-20T08:38:43;101022.81;;;7.25;66.87
57192;BME280;43052;52.588;13.396;2023-02-20T08:41:10;101016.72;;;7.24;66.43
57192;BME280;43052;52.588;13.396;2023-02-20T08:43:37;101012.47;;;7.31;66.58
57192;BME280;43052;52.588;13.396;2023-02-20T08:46:04;101009.88;;;7.31;66.44
57192;BME280;43052;52.588;13.396;2023-02-20T08:48:30;100983.88;;;7.31;66.16
57192;BME280;43052;52.588;13.396;2023-02-20T08:50:55;101007.38;;;7.39;66.19
57192;BME280;43052;52.588;13.396;2023-02-20T08:53:21;100990.97;;;7.47;65.67
57192;BME280;43052;52.588;13.396;2023-02-20T08:55:46;100980.63;;;7.50;65.63
57192;BME280;43052;52.588;13.396;2023-02-20T08:58:11;100979.81;;;7.56;65.85
57192;BME280;43052;52.588;13.396;2023-02-20T09:00:39;100975.50;;;7.63;65.58
57192;BME280;43052;52.588;13.396;2023-02-20T09:03:04;100975.59;;;7.69;65.60
57192;BME280;43052;52.588;13.396;2023-02-20T09:05:33;100967.03;;;7.81;64.93
57192;BME280;43052;52.588;13.396;2023-02-20T09:07:59;100934.94;;;7.83;64.69
57192;BME280;43052;52.588;13.396;2023-02-20T09:10:25;100942.78;;;7.88;64.46
57192;BME280;43052;52.588;13.396;2023-02-20T09:12:50;100935.97;;;8.04;64.33
57192;BME280;43052;52.588;13.396;2023-02-20T09:15:15;100928.31;;;8.26;64.17
57192;BME280;43052;52.588;13.396;2023-02-20T09:17:43;100932.69;;;8.33;64.26
57192;BME280;43052;52.588;13.396;2023-02-20T09:20:10;100913.72;;;8.53;63.54
57192;BME280;43052;52.588;13.396;2023-02-20T09:22:36;100908.63;;;8.74;62.88
57192;BME280;43052;52.588;13.396;2023-02-20T09:25:01;100906.94;;;8.90;62.25
57192;BME280;43052;52.588;13.396;2023-02-20T09:27:26;100896.59;;;9.11;62.01
57192;BME280;43052;52.588;13.396;2023-02-20T09:29:52;100900.09;;;9.20;62.13
57192;BME280;43052;52.588;13.396;2023-02-20T09:32:17;100885.31;;;9.30;61.48
57192;BME280;43052;52.588;13.396;2023-02-20T09:34:42;100901.84;;;9.41;61.06
57192;BME280;43052;52.588;13.396;2023-02-20T09:37:09;100895.78;;;9.52;60.88
57192;BME280;43052;52.588;13.396;2023-02-20T09:39:35;100895.78;;;9.56;60.91
57192;BME280;43052;52.588;13.396;2023-02-20T09:46:55;100884.50;;;9.71;58.82
57192;BME280;43052;52.588;13.396;2023-02-20T09:49:29;100884.47;;;9.79;59.06
57192;BME280;43052;52.588;13.396;2023-02-20T09:52:04;100874.91;;;9.84;59.15
57192;BME280;43052;52.588;13.396;2023-02-20T09:54:33;100873.16;;;9.94;59.12
57192;BME280;43052;52.588;13.396;2023-02-20T09:57:02;100863.56;;;10.02;58.88
57192;BME280;43052;52.588;13.396;2023-02-20T09:59:37;100866.13;;;10.24;58.29
57192;BME280;43052;52.588;13.396;2023-02-20T10:02:15;100861.69;;;10.54;57.42
57192;BME280;43052;52.588;13.396;2023-02-20T10:04:43;100861.69;;;10.62;57.18
57192;BME280;43052;52.588;13.396;2023-02-20T10:07:23;100860.81;;;10.60;56.95
57192;BME280;43052;52.588;13.396;2023-02-20T10:09:49;100859.84;;;10.82;57.01
57192;BME280;43052;52.588;13.396;2023-02-20T10:12:52;100847.56;;;10.97;56.49
57192;BME280;43052;52.588;13.396;2023-02-20T10:15:24;100845.00;;;10.86;55.96
57192;BME280;43052;52.588;13.396;2023-02-20T10:20:32;100838.22;;;10.35;57.02
57192;BME280;43052;52.588;13.396;2023-02-20T10:25:49;100836.47;;;10.33;57.42
57192;BME280;43052;52.588;13.396;2023-02-20T10:28:17;100825.16;;;10.40;57.04
57192;BME280;43052;52.588;13.396;2023-02-20T10:30:56;100833.84;;;10.53;56.82
57192;BME280;43052;52.588;13.396;2023-02-20T10:33:40;100815.47;;;10.64;56.72
57192;BME280;43052;52.588;13.396;2023-02-20T10:36:21;100821.53;;;10.75;56.54
57192;BME280;43052;52.588;13.396;2023-02-20T10:38:54;100821.47;;;10.80;56.60
57192;BME280;43052;52.588;13.396;2023-02-20T10:41:29;100825.81;;;10.89;56.54
57192;BME280;43052;52.588;13.396;2023-02-20T10:44:06;100809.22;;;10.94;56.70
57192;BME280;43052;52.588;13.396;2023-02-20T10:46:50;100790.66;;;11.27;56.35
57192;BME280;43052;52.588;13.396;2023-02-20T10:51:57;100793.06;;;11.52;55.23
57192;BME280;43052;52.588;13.396;2023-02-20T10:54:33;100803.59;;;11.44;55.01
57192;BME280;43052;52.588;13.396;2023-02-20T10:57:21;100791.38;;;11.44;55.19
57192;BME280;43052;52.588;13.396;2023-02-20T10:59:53;100791.22;;;11.62;55.17
57192;BME280;43052;52.588;13.396;2023-02-20T11:02:26;100781.22;;;12.04;54.70
57192;BME280;43052;52.588;13.396;2023-02-20T11:05:11;100780.88;;;12.32;53.90
57192;BME280;43052;52.588;13.396;2023-02-20T11:07:37;100787.97;;;12.23;53.86
57192;BME280;43052;52.588;13.396;2023-02-20T11:10:04;100787.38;;;12.03;54.07
57192;BME280;43052;52.588;13.396;2023-02-20T11:12:33;100781.44;;;11.82;54.40
57192;BME280;43052;52.588;13.396;2023-02-20T11:15:18;100793.03;;;11.56;54.78
57192;BME280;43052;52.588;13.396;2023-02-20T11:17:44;100794.84;;;11.47;55.32
57192;BME280;43052;52.588;13.396;2023-02-20T11:22:55;100793.25;;;11.32;56.09
57192;BME280;43052;52.588;13.396;2023-02-20T11:25:32;100790.72;;;11.16;56.59
57192;BME280;43052;52.588;13.396;2023-02-20T11:28:18;100803.94;;;11.01;56.96
57192;BME280;43052;52.588;13.396;2023-02-20T11:30:47;100795.25;;;10.95;57.44
57192;BME280;43052;52.588;13.396;2023-02-20T11:33:14;100790.91;;;10.91;57.86
57192;BME280;43052;52.588;13.396;2023-02-20T11:35:42;100789.25;;;10.76;58.15
57192;BME280;43052;52.588;13.396;2023-02-20T11:43:21;100784.09;;;10.62;59.25
57192;BME280;43052;52.588;13.396;2023-02-20T11:45:47;100785.84;;;10.59;59.44
57192;BME280;43052;52.588;13.396;2023-02-20T11:48:17;100777.19;;;10.49;59.76
57192;BME280;43052;52.588;13.396;2023-02-20T11:50:52;100783.34;;;10.42;60.12
57192;BME280;43052;52.588;13.396;2023-02-20T11:53:21;100775.50;;;10.42;60.39
57192;BME280;43052;52.588;13.396;2023-02-20T11:55:49;100778.97;;;10.41;60.50
57192;BME280;43052;52.588;13.396;2023-02-20T11:58:30;100775.47;;;10.46;60.53
57192;BME280;43052;52.588;13.396;2023-02-20T12:00:55;100767.63;;;10.46;60.58
57192;BME280;43052;52.588;13.396;2023-02-20T12:03:26;100760.69;;;10.34;60.81
57192;BME280;43052;52.588;13.396;2023-02-20T12:05:53;100775.50;;;10.29;61.04
57192;BME280;43052;52.588;13.396;2023-02-20T12:08:26;100774.69;;;10.19;61.33
57192;BME280;43052;52.588;13.396;2023-02-20T12:10:55;100765.09;;;10.18;61.65
57192;BME280;43052;52.588;13.396;2023-02-20T12:13:24;100775.53;;;10.25;61.60
57192;BME280;43052;52.588;13.396;2023-02-20T12:16:12;100773.75;;;10.31;61.86
57192;BME280;43052;52.588;13.396;2023-02-20T12:19:18;100765.91;;;10.33;61.97
57192;BME280;43052;52.588;13.396;2023-02-20T12:22:02;100774.63;;;10.40;61.87
57192;BME280;43052;52.588;13.396;2023-02-20T12:24:45;100761.56;;;10.38;61.82
57192;BME280;43052;52.588;13.396;2023-02-20T12:35:55;100765.91;;;10.34;62.36
57192;BME280;43052;52.588;13.396;2023-02-20T12:38:41;100765.88;;;10.42;62.39
57192;BME280;43052;52.588;13.396;2023-02-20T12:41:32;100764.13;;;10.52;62.33
57192;BME280;43052;52.588;13.396;2023-02-20T12:44:23;100759.69;;;10.59;62.34
57192;BME280;43052;52.588;13.396;2023-02-20T12:47:28;100754.50;;;10.56;62.04
57192;BME280;43052;52.588;13.396;2023-02-20T12:58:47;100784.28;;;10.11;63.49
57192;BME280;43052;52.588;13.396;2023-02-20T13:01:16;100774.72;;;10.06;63.81
57192;BME280;43052;52.588;13.396;2023-02-20T13:03:51;100774.75;;;9.96;64.05
57192;BME280;43052;52.588;13.396;2023-02-20T13:06:38;100782.56;;;10.02;64.00
57192;BME280;43052;52.588;13.396;2023-02-20T13:11:41;100758.19;;;10.03;64.40
57192;BME280;43052;52.588;13.396;2023-02-20T13:16:55;100768.69;;;9.80;65.47
57192;BME280;43052;52.588;13.396;2023-02-20T13:19:39;100761.75;;;9.71;66.28
57192;BME280;43052;52.588;13.396;2023-02-20T13:22:06;100752.19;;;9.56;67.08
57192;BME280;43052;52.588;13.396;2023-02-20T13:24:34;100767.00;;;9.50;67.32
57192;BME280;43052;52.588;13.396;2023-02-20T13:27:05;100765.25;;;9.39;68.07
57192;BME280;43052;52.588;13.396;2023-02-20T13:29:37;100755.69;;;9.32;68.14
57192;BME280;43052;52.588;13.396;2023-02-20T13:34:43;100772.22;;;9.27;68.54
57192;BME280;43052;52.588;13.396;2023-02-20T13:45:38;100771.34;;;9.09;69.77
57192;BME280;43052;52.588;13.396;2023-02-20T13:48:46;100760.06;;;9.07;70.28
57192;BME280;43052;52.588;13.396;2023-02-20T13:53:52;100762.66;;;8.93;71.06
57192;BME280;43052;52.588;13.396;2023-02-20T13:56:22;100771.34;;;8.93;71.04
57192;BME280;43052;52.588;13.396;2023-02-20T13:58:54;100763.50;;;8.90;70.89
57192;BME280;43052;52.588;13.396;2023-02-20T14:01:21;100776.53;;;8.95;71.12
57192;BME280;43052;52.588;13.396;2023-02-20T14:03:59;100770.47;;;8.96;71.31
57192;BME280;43052;52.588;13.396;2023-02-20T14:06:24;100764.38;;;8.97;70.99
57192;BME280;43052;52.588;13.396;2023-02-20T14:09:06;100767.88;;;9.02;70.76
57192;BME280;43052;52.588;13.396;2023-02-20T14:11:33;100780.94;;;9.07;70.59
57192;BME280;43052;52.588;13.396;2023-02-20T14:14:10;100764.41;;;9.00;70.66
57192;BME280;43052;52.588;13.396;2023-02-20T14:16:38;100763.50;;;9.00;70.63
57192;BME280;43052;52.588;13.396;2023-02-20T14:19:19;100767.88;;;9.05;70.77